createdAt,value
2022-10-20T00:01:11.018Z,18.63
2022-10-20T00:03:39.044Z,17.42
2022-10-20T00:06:12.153Z,17.90
2022-10-20T00:08:40.940Z,18.98
2022-10-20T00:11:10.529Z,19.35
2022-10-20T00:13:38.821Z,18.88
2022-10-20T00:16:07.098Z,19.02
2022-10-20T00:18:35.112Z,18.17
2022-10-20T00:21:10.538Z,20.58
2022-10-20T00:23:37.930Z,18.73
2022-10-20T00:26:08.108Z,19.52
2022-10-20T00:28:35.780Z,19.17
2022-10-20T00:31:04.554Z,19.25
2022-10-20T00:33:32.621Z,20.92
2022-10-20T00:36:01.358Z,19.27
2022-10-20T00:38:28.840Z,20.88
2022-10-20T00:40:56.635Z,19.52
2022-10-20T00:43:24.352Z,20.50
2022-10-20T00:45:57.301Z,22.13
2022-10-20T00:48:30.584Z,20.63
2022-10-20T00:50:58.036Z,20.25
2022-10-20T00:53:28.470Z,20.60
2022-10-20T00:55:57.834Z,20.25
2022-10-20T00:58:26.342Z,20.15
2022-10-20T01:00:57.790Z,20.95
2022-10-20T01:03:30.482Z,20.73
2022-10-20T01:05:57.862Z,20.33
2022-10-20T01:08:25.269Z,21.40
2022-10-20T01:11:16.557Z,20.50
2022-10-20T01:14:04.848Z,20.63
2022-10-20T01:17:01.343Z,20.70
2022-10-20T01:19:36.397Z,20.38
2022-10-20T01:22:28.708Z,21.63
2022-10-20T01:25:07.987Z,20.98
2022-10-20T01:27:43.134Z,20.42
2022-10-20T01:30:14.789Z,21.73
2022-10-20T01:33:11.178Z,20.02
2022-10-20T01:35:51.650Z,20.38
2022-10-20T01:38:28.024Z,20.83
2022-10-20T01:41:14.310Z,22.00
2022-10-20T01:43:45.009Z,20.25
2022-10-20T01:46:13.288Z,20.77
2022-10-20T01:48:41.407Z,19.17
2022-10-20T01:51:09.878Z,20.90
2022-10-20T01:53:37.263Z,21.75
2022-10-20T01:56:05.545Z,22.55
2022-10-20T01:59:29.006Z,22.02
2022-10-20T02:02:07.682Z,21.17
2022-10-20T02:05:18.194Z,21.27
2022-10-20T02:07:45.474Z,20.50
2022-10-20T02:10:20.504Z,20.95
2022-10-20T02:12:52.622Z,23.50
2022-10-20T02:15:24.104Z,20.23
2022-10-20T02:17:58.477Z,22.15
2022-10-20T02:20:27.109Z,21.05
2022-10-20T02:22:55.931Z,20.88
2022-10-20T02:25:24.686Z,20.75
2022-10-20T02:27:54.686Z,20.83
2022-10-20T02:30:22.527Z,20.67
2022-10-20T02:32:52.871Z,19.70
2022-10-20T02:35:23.288Z,20.13
2022-10-20T02:37:51.019Z,22.05
2022-10-20T02:40:18.459Z,21.85
2022-10-20T02:42:45.681Z,22.13
2022-10-20T02:45:13.037Z,21.75
2022-10-20T02:47:40.376Z,21.67
2022-10-20T02:50:08.394Z,20.27
2022-10-20T02:52:36.729Z,21.95
2022-10-20T02:55:05.240Z,22.63
2022-10-20T02:57:32.597Z,21.50
2022-10-20T03:00:00.268Z,21.58
2022-10-20T03:02:27.512Z,21.52
2022-10-20T03:04:54.814Z,20.80
2022-10-20T03:07:22.066Z,24.67
2022-10-20T03:09:49.474Z,23.02
2022-10-20T03:12:16.814Z,21.05
2022-10-20T03:14:44.079Z,22.33
2022-10-20T03:17:11.324Z,23.02
2022-10-20T03:19:39.390Z,21.48
2022-10-20T03:22:07.054Z,21.92
2022-10-20T03:24:34.310Z,21.55
2022-10-20T03:27:01.544Z,20.52
2022-10-20T03:29:28.860Z,22.58
2022-10-20T03:31:56.160Z,23.42
2022-10-20T03:34:23.513Z,23.65
2022-10-20T03:36:50.825Z,21.77
2022-10-20T03:39:18.087Z,21.63
2022-10-20T03:41:45.385Z,25.45
2022-10-20T03:44:12.753Z,22.83
2022-10-20T03:46:40.006Z,23.65
2022-10-20T03:49:07.329Z,22.75
2022-10-20T03:51:34.581Z,23.50
2022-10-20T03:54:02.273Z,24.20
2022-10-20T03:56:29.436Z,23.00
2022-10-20T03:58:56.731Z,22.83
2022-10-20T04:01:29.671Z,22.63
2022-10-20T04:03:57.096Z,24.10
2022-10-20T04:06:24.856Z,23.52
2022-10-20T04:08:52.150Z,23.42
2022-10-20T04:11:19.863Z,22.35
2022-10-20T04:13:47.095Z,22.10
2022-10-20T04:16:14.395Z,24.00
2022-10-20T04:18:41.676Z,23.58
2022-10-20T04:21:08.988Z,24.52
2022-10-20T04:23:36.328Z,21.00
2022-10-20T04:26:11.931Z,26.33
2022-10-20T04:28:39.367Z,23.48
2022-10-20T04:31:06.981Z,22.90
2022-10-20T04:33:35.246Z,23.55
2022-10-20T04:36:06.064Z,22.98
2022-10-20T04:38:35.003Z,24.85
2022-10-20T04:41:07.279Z,23.13
2022-10-20T04:43:35.241Z,22.05
2022-10-20T04:46:08.809Z,22.35
2022-10-20T04:48:37.421Z,22.83
2022-10-20T04:51:07.875Z,23.23
2022-10-20T04:53:35.748Z,23.88
2022-10-20T04:56:04.680Z,22.65
2022-10-20T04:58:32.484Z,25.15
2022-10-20T05:01:09.941Z,24.80
2022-10-20T05:03:37.374Z,23.70
2022-10-20T05:06:08.609Z,24.20
2022-10-20T05:08:35.921Z,23.05
2022-10-20T05:11:03.477Z,23.23
2022-10-20T05:13:30.889Z,22.23
2022-10-20T05:15:58.223Z,23.98
2022-10-20T05:18:25.528Z,22.73
2022-10-20T05:21:07.858Z,22.50
2022-10-20T05:23:36.551Z,23.77
2022-10-20T05:26:08.053Z,24.42
2022-10-20T05:28:35.411Z,24.30
2022-10-20T05:31:04.156Z,24.55
2022-10-20T05:33:31.690Z,25.00
2022-10-20T05:35:59.192Z,23.85
2022-10-20T05:38:27.020Z,23.75
2022-10-20T05:40:54.199Z,25.13
2022-10-20T05:43:21.519Z,23.10
2022-10-20T05:45:54.028Z,24.17
2022-10-20T05:48:21.245Z,23.00
2022-10-20T05:50:49.019Z,24.52
2022-10-20T05:53:16.248Z,22.45
2022-10-20T05:55:43.937Z,24.02
2022-10-20T05:58:11.155Z,24.10
2022-10-20T06:00:42.389Z,23.73
2022-10-20T06:03:09.741Z,23.83
2022-10-20T06:05:37.035Z,26.40
2022-10-20T06:08:04.566Z,25.23
2022-10-20T06:10:31.991Z,25.63
2022-10-20T06:12:59.304Z,26.08
2022-10-20T06:15:26.552Z,25.25
2022-10-20T06:17:53.860Z,26.48
2022-10-20T06:20:21.093Z,28.40
2022-10-20T06:22:48.726Z,24.42
2022-10-20T06:25:15.927Z,27.73
2022-10-20T06:27:44.481Z,25.98
2022-10-20T06:30:11.904Z,26.95
2022-10-20T06:32:39.468Z,27.45
2022-10-20T06:35:07.122Z,27.30
2022-10-20T06:37:34.372Z,27.08
2022-10-20T06:40:02.673Z,25.17
2022-10-20T06:42:29.815Z,28.38
2022-10-20T06:44:58.667Z,26.23
2022-10-20T06:47:25.951Z,27.35
2022-10-20T06:49:53.310Z,27.98
2022-10-20T06:52:20.658Z,26.92
2022-10-20T06:54:47.935Z,27.75
2022-10-20T06:57:15.178Z,26.35
2022-10-20T06:59:42.492Z,29.35
2022-10-20T07:02:12.170Z,26.20
2022-10-20T07:04:39.974Z,27.38
2022-10-20T07:07:07.250Z,27.23
2022-10-20T07:09:34.531Z,26.48
2022-10-20T07:12:02.281Z,27.60
2022-10-20T07:14:32.353Z,28.10
2022-10-20T07:16:59.840Z,25.75
2022-10-20T07:19:27.284Z,27.70
2022-10-20T07:21:54.709Z,26.23
2022-10-20T07:24:22.189Z,27.80
2022-10-20T07:26:49.473Z,26.45
2022-10-20T07:29:16.833Z,26.98
2022-10-20T07:31:46.224Z,30.48
2022-10-20T07:34:31.507Z,27.85
2022-10-20T07:36:58.886Z,29.67
2022-10-20T07:39:27.140Z,28.52
2022-10-20T07:41:54.985Z,28.95
2022-10-20T07:44:23.097Z,29.80
2022-10-20T07:46:50.388Z,29.20
2022-10-20T07:52:05.429Z,30.42
2022-10-20T07:54:33.186Z,30.52
2022-10-20T07:57:00.598Z,28.95
2022-10-20T07:59:29.413Z,29.50
2022-10-20T08:01:59.560Z,29.77
2022-10-20T08:04:27.862Z,29.98
2022-10-20T08:06:55.150Z,29.40
2022-10-20T08:09:22.380Z,29.67
2022-10-20T08:11:52.860Z,28.77
2022-10-20T08:14:23.681Z,27.13
2022-10-20T08:16:51.020Z,26.73
2022-10-20T08:19:24.242Z,29.73
2022-10-20T08:21:52.180Z,30.77
2022-10-20T08:24:19.455Z,31.65
2022-10-20T08:26:46.812Z,32.17
2022-10-20T08:29:14.708Z,32.22
2022-10-20T08:31:44.415Z,30.73
2022-10-20T08:34:11.957Z,32.05
2022-10-20T08:36:39.274Z,30.92
2022-10-20T08:39:06.773Z,31.75
2022-10-20T08:41:55.755Z,29.98
2022-10-20T08:44:34.945Z,31.90
2022-10-20T08:47:06.020Z,31.25
2022-10-20T08:49:35.010Z,31.27
2022-10-20T08:52:03.087Z,29.60
2022-10-20T08:54:34.138Z,29.95
2022-10-20T08:57:01.537Z,25.00
2022-10-20T08:59:39.861Z,28.08
2022-10-20T09:02:17.151Z,28.85
2022-10-20T09:04:58.523Z,24.05
2022-10-20T09:07:32.870Z,21.48
2022-10-20T09:10:21.604Z,23.75
2022-10-20T09:12:49.535Z,23.88
2022-10-20T09:15:18.203Z,22.48
2022-10-20T09:18:04.110Z,22.40
2022-10-20T09:20:40.371Z,21.77
2022-10-20T09:23:39.527Z,22.08
2022-10-20T09:26:05.127Z,21.67
2022-10-20T09:28:38.535Z,21.45
2022-10-20T09:31:23.211Z,19.05
2022-10-20T09:33:50.601Z,17.23
2022-10-20T09:36:21.084Z,15.80
2022-10-20T09:38:51.582Z,17.35
2022-10-20T09:41:22.196Z,15.48
2022-10-20T09:43:57.237Z,15.48
2022-10-20T09:46:37.289Z,13.02
2022-10-20T09:49:06.960Z,14.50
2022-10-20T09:51:35.101Z,13.95
2022-10-20T09:54:08.172Z,15.32
2022-10-20T09:56:42.372Z,14.38
2022-10-20T09:59:34.916Z,14.57
2022-10-20T10:02:04.699Z,13.45
2022-10-20T10:04:38.781Z,12.15
2022-10-20T10:07:26.047Z,14.90
2022-10-20T10:09:56.142Z,12.18
2022-10-20T10:12:25.960Z,9.15
2022-10-20T10:14:58.562Z,8.57
2022-10-20T10:17:44.369Z,9.43
2022-10-20T10:20:11.837Z,7.88
2022-10-20T10:22:40.751Z,8.13
2022-10-20T10:25:24.746Z,8.68
2022-10-20T10:28:06.969Z,9.38
2022-10-20T10:30:37.388Z,8.70
2022-10-20T10:33:26.406Z,10.23
2022-10-20T10:35:53.817Z,8.65
2022-10-20T10:38:21.195Z,9.65
2022-10-20T10:41:00.478Z,9.38
2022-10-20T10:43:52.147Z,10.55
2022-10-20T10:46:30.568Z,9.63
2022-10-20T10:49:00.710Z,10.20
2022-10-20T10:51:33.721Z,11.40
2022-10-20T10:54:19.689Z,10.30
2022-10-20T10:56:51.399Z,7.93
2022-10-20T10:59:23.413Z,7.03
2022-10-20T11:02:09.181Z,6.85
2022-10-20T11:05:01.166Z,6.95
2022-10-20T11:07:38.163Z,7.35
2022-10-20T11:10:30.723Z,6.15
2022-10-20T11:13:12.734Z,6.40
2022-10-20T11:16:01.788Z,6.38
2022-10-20T11:18:50.829Z,6.40
2022-10-20T11:21:41.449Z,5.72
2022-10-20T11:24:35.356Z,7.22
2022-10-20T11:27:16.172Z,6.35
2022-10-20T11:29:49.078Z,6.10
2022-10-20T11:32:16.287Z,6.30
2022-10-20T11:34:57.986Z,6.40
2022-10-20T11:37:29.401Z,7.57
2022-10-20T11:40:14.772Z,5.40
2022-10-20T11:43:12.637Z,4.97
2022-10-20T11:45:39.863Z,4.80
2022-10-20T11:48:11.880Z,4.68
2022-10-20T11:50:42.536Z,4.15
2022-10-20T11:53:36.821Z,5.00
2022-10-20T11:56:30.411Z,5.15
2022-10-20T11:59:39.850Z,4.57
2022-10-20T12:02:45.141Z,4.05
2022-10-20T12:05:18.593Z,6.22
2022-10-20T12:08:28.066Z,3.97
2022-10-20T12:10:52.625Z,5.10
2022-10-20T12:13:27.281Z,5.63
2022-10-20T12:15:54.582Z,4.63
2022-10-20T12:18:33.027Z,5.00
2022-10-20T12:21:06.467Z,4.85
2022-10-20T12:23:46.168Z,4.63
2022-10-20T12:26:42.359Z,5.50
2022-10-20T12:29:30.761Z,5.65
2022-10-20T12:32:25.875Z,6.25
2022-10-20T12:35:02.864Z,5.15
2022-10-20T12:37:34.957Z,4.82
2022-10-20T12:40:33.778Z,4.30
2022-10-20T12:45:40.924Z,2.83
2022-10-20T12:48:17.209Z,2.20
2022-10-20T12:50:46.961Z,2.00
2022-10-20T12:53:23.390Z,2.10
2022-10-20T12:56:04.871Z,2.00
2022-10-20T12:58:34.709Z,1.50
2022-10-20T13:01:07.432Z,2.03
2022-10-20T13:03:39.689Z,1.88
2022-10-20T13:06:26.954Z,1.45
2022-10-20T13:09:03.525Z,1.65
2022-10-20T13:11:40.617Z,1.60
2022-10-20T13:14:17.017Z,1.40
2022-10-20T13:17:03.142Z,1.50
2022-10-20T13:19:47.520Z,1.88
2022-10-20T13:22:47.696Z,2.42
2022-10-20T13:25:18.488Z,2.60
2022-10-20T13:27:49.032Z,2.67
2022-10-20T13:30:22.451Z,4.15
2022-10-20T13:33:33.933Z,5.13
2022-10-20T13:36:12.498Z,3.92
2022-10-20T13:38:42.679Z,4.60
2022-10-20T13:41:38.486Z,1.27
2022-10-20T13:44:32.054Z,2.42
2022-10-20T13:47:30.925Z,1.42
2022-10-20T13:50:06.228Z,1.20
2022-10-20T13:52:40.818Z,1.52
2022-10-20T13:55:16.054Z,1.58
2022-10-20T13:57:55.119Z,1.13
2022-10-20T14:00:29.105Z,1.00
2022-10-20T14:03:00.839Z,1.00
2022-10-20T14:05:31.484Z,1.58
2022-10-20T14:08:04.715Z,1.00
2022-10-20T14:10:48.209Z,1.20
2022-10-20T14:13:21.639Z,1.58
2022-10-20T14:15:52.148Z,1.58
2022-10-20T14:18:25.374Z,1.77
2022-10-20T14:21:04.840Z,1.80
2022-10-20T14:23:39.493Z,2.60
2022-10-20T14:26:11.624Z,1.95
2022-10-20T14:28:40.206Z,1.45
2022-10-20T14:31:10.198Z,1.80
2022-10-20T14:33:44.173Z,1.80
2022-10-20T14:36:29.370Z,1.83
2022-10-20T14:39:00.562Z,1.35
2022-10-20T14:41:31.662Z,2.95
2022-10-20T14:44:08.498Z,1.58
2022-10-20T14:46:45.086Z,1.60
2022-10-20T14:49:26.768Z,1.50
2022-10-20T14:52:21.322Z,2.05
2022-10-20T14:54:51.318Z,2.65
2022-10-20T14:57:19.137Z,1.45
2022-10-20T15:00:06.093Z,1.77
2022-10-20T15:02:33.819Z,1.70
2022-10-20T15:05:22.109Z,2.97
2022-10-20T15:07:49.792Z,1.70
2022-10-20T15:10:20.467Z,1.75
2022-10-20T15:12:49.669Z,2.80
2022-10-20T15:15:18.824Z,2.60
2022-10-20T15:17:48.781Z,1.30
2022-10-20T15:20:34.488Z,1.38
2022-10-20T15:23:06.298Z,1.35
2022-10-20T15:25:47.340Z,1.58
2022-10-20T15:28:22.833Z,0.82
2022-10-20T15:30:50.305Z,1.77
2022-10-20T15:33:17.859Z,2.08
2022-10-20T15:35:47.325Z,1.83
2022-10-20T15:38:15.296Z,1.52
2022-10-20T15:40:43.114Z,2.25
2022-10-20T15:43:13.221Z,2.70
2022-10-20T15:45:54.360Z,3.78
2022-10-20T15:48:25.864Z,3.05
2022-10-20T15:50:56.528Z,2.90
2022-10-20T15:53:23.797Z,3.65
2022-10-20T15:55:51.041Z,2.72
2022-10-20T15:58:18.332Z,2.10
2022-10-20T16:00:45.745Z,2.10
2022-10-20T16:03:19.079Z,2.15
2022-10-20T16:05:47.295Z,2.58
2022-10-20T16:10:43.589Z,5.80
2022-10-20T16:13:12.040Z,3.88
2022-10-20T16:15:39.373Z,2.80
2022-10-20T16:18:09.592Z,3.05
2022-10-20T16:20:37.560Z,2.90
2022-10-20T16:23:05.106Z,2.47
2022-10-20T16:25:32.437Z,1.98
2022-10-20T16:27:59.977Z,2.80
2022-10-20T16:30:27.359Z,3.22
2022-10-20T16:32:54.625Z,3.13
2022-10-20T16:35:22.541Z,2.40
2022-10-20T16:37:49.820Z,2.28
2022-10-20T16:40:17.600Z,5.43
2022-10-20T16:42:44.738Z,6.38
2022-10-20T16:45:12.080Z,4.05
2022-10-20T16:47:40.001Z,4.60
2022-10-20T16:50:07.789Z,3.83
2022-10-20T16:52:35.187Z,4.22
2022-10-20T16:55:02.606Z,3.42
2022-10-20T16:57:33.474Z,3.95
2022-10-20T17:00:00.778Z,1.92
2022-10-20T17:02:28.142Z,2.35
2022-10-20T17:04:55.403Z,2.10
2022-10-20T17:07:22.746Z,2.50
2022-10-20T17:09:50.022Z,2.40
2022-10-20T17:12:17.401Z,2.17
2022-10-20T17:14:44.808Z,2.53
2022-10-20T17:17:12.127Z,2.53
2022-10-20T17:19:41.305Z,3.45
2022-10-20T17:24:38.247Z,3.25
2022-10-20T17:27:05.775Z,2.50
2022-10-20T17:29:33.101Z,3.15
2022-10-20T17:32:00.494Z,2.88
2022-10-20T17:34:27.710Z,2.78
2022-10-20T17:36:54.987Z,2.40
2022-10-20T17:39:24.003Z,2.72
2022-10-20T17:41:51.306Z,1.90
2022-10-20T17:44:18.525Z,1.85
2022-10-20T17:46:45.805Z,3.00
2022-10-20T17:49:13.087Z,3.75
2022-10-20T17:51:40.448Z,3.15
2022-10-20T17:54:07.827Z,2.83
2022-10-20T17:56:37.018Z,3.17
2022-10-20T17:59:07.416Z,3.33
2022-10-20T18:01:38.376Z,2.17
2022-10-20T18:04:08.900Z,2.80
2022-10-20T18:06:36.830Z,3.15
2022-10-20T18:09:07.546Z,4.05
2022-10-20T18:11:35.790Z,2.83
2022-10-20T18:14:04.084Z,2.60
2022-10-20T18:16:33.341Z,2.90
2022-10-20T18:19:01.256Z,2.80
2022-10-20T18:21:30.112Z,3.90
2022-10-20T18:24:02.081Z,3.13
2022-10-20T18:26:30.463Z,4.63
2022-10-20T18:28:59.594Z,4.65
2022-10-20T18:31:30.305Z,3.42
2022-10-20T18:34:04.435Z,3.95
2022-10-20T18:36:36.922Z,4.33
2022-10-20T18:39:07.906Z,4.22
2022-10-20T18:41:38.279Z,4.65
2022-10-20T18:44:10.759Z,3.92
2022-10-20T18:46:39.217Z,4.43
2022-10-20T18:49:07.993Z,4.82
2022-10-20T18:51:36.352Z,4.28
2022-10-20T18:54:05.977Z,3.53
2022-10-20T18:56:34.027Z,4.13
2022-10-20T18:59:04.209Z,4.28
2022-10-20T19:01:35.029Z,4.80
2022-10-20T19:04:03.252Z,3.30
2022-10-20T19:06:32.902Z,3.78
2022-10-20T19:09:02.587Z,3.55
2022-10-20T19:11:32.618Z,3.33
2022-10-20T19:14:00.651Z,3.53
2022-10-20T19:16:31.039Z,4.38
2022-10-20T19:19:00.321Z,4.20
2022-10-20T19:21:28.980Z,3.42
2022-10-20T19:24:06.111Z,3.75
2022-10-20T19:26:39.773Z,4.45
2022-10-20T19:29:14.121Z,4.00
2022-10-20T19:31:47.264Z,3.65
2022-10-20T19:34:27.577Z,4.57
2022-10-20T19:36:55.926Z,3.75
2022-10-20T19:39:27.148Z,4.50
2022-10-20T19:41:56.182Z,4.55
2022-10-20T19:44:23.745Z,4.78
2022-10-20T19:46:52.061Z,4.65
2022-10-20T19:49:20.846Z,5.82
2022-10-20T19:51:48.467Z,4.80
2022-10-20T19:54:16.003Z,4.70
2022-10-20T19:56:43.685Z,5.20
2022-10-20T19:59:11.723Z,4.40
2022-10-20T20:01:39.110Z,5.00
2022-10-20T20:04:06.669Z,5.25
2022-10-20T20:06:34.918Z,5.30
2022-10-20T20:09:06.931Z,5.18
2022-10-20T20:11:36.501Z,6.30
2022-10-20T20:14:11.828Z,5.15
2022-10-20T20:16:41.429Z,5.35
2022-10-20T20:19:09.279Z,6.80
2022-10-20T20:21:36.949Z,5.68
2022-10-20T20:24:04.910Z,5.20
2022-10-20T20:26:34.228Z,4.53
2022-10-20T20:29:02.022Z,5.18
2022-10-20T20:31:30.383Z,5.53
2022-10-20T20:33:57.883Z,4.75
2022-10-20T20:36:27.143Z,5.47
2022-10-20T20:38:57.845Z,5.25
2022-10-20T20:41:27.775Z,5.45
2022-10-20T20:43:55.164Z,3.75
2022-10-20T20:46:24.201Z,4.68
2022-10-20T20:48:51.717Z,4.10
2022-10-20T20:51:19.180Z,4.70
2022-10-20T20:53:46.632Z,5.25
2022-10-20T20:56:20.544Z,3.90
2022-10-20T20:58:51.940Z,4.63
2022-10-20T21:01:27.895Z,4.82
2022-10-20T21:03:56.674Z,4.93
2022-10-20T21:06:33.123Z,5.20
2022-10-20T21:09:01.706Z,4.60
2022-10-20T21:11:29.275Z,4.80
2022-10-20T21:13:58.909Z,4.85
2022-10-20T21:16:31.931Z,6.00
2022-10-20T21:19:06.006Z,7.85
2022-10-20T21:21:35.308Z,7.95
2022-10-20T21:24:03.950Z,5.50
2022-10-20T21:26:32.444Z,6.38
2022-10-20T21:28:59.774Z,5.05
2022-10-20T21:31:28.354Z,6.10
2022-10-20T21:34:00.772Z,6.72
2022-10-20T21:36:29.703Z,6.90
2022-10-20T21:38:58.977Z,6.55
2022-10-20T21:41:32.050Z,7.43
2022-10-20T21:44:00.986Z,6.57
2022-10-20T21:46:50.759Z,7.40
2022-10-20T21:49:20.373Z,6.75
2022-10-20T21:51:50.692Z,6.80
2022-10-20T21:54:28.708Z,7.35
2022-10-20T21:56:56.873Z,8.02
2022-10-20T21:59:29.113Z,7.60
2022-10-20T22:01:58.673Z,8.27
2022-10-20T22:04:28.214Z,6.45
2022-10-20T22:06:56.142Z,6.88
2022-10-20T22:09:23.983Z,6.30
2022-10-20T22:11:55.224Z,6.00
2022-10-20T22:14:23.113Z,5.72
2022-10-20T22:16:51.059Z,6.13
2022-10-20T22:19:23.030Z,5.72
2022-10-20T22:21:51.631Z,5.38
2022-10-20T22:24:20.581Z,5.35
2022-10-20T22:26:49.157Z,5.22
2022-10-20T22:29:16.472Z,5.55
2022-10-20T22:31:43.878Z,6.13
2022-10-20T22:34:11.916Z,6.13
2022-10-20T22:36:39.669Z,7.18
2022-10-20T22:39:07.891Z,7.47
2022-10-20T22:41:35.754Z,6.88
2022-10-20T22:44:03.199Z,8.23
2022-10-20T22:46:30.544Z,7.68
2022-10-20T22:51:26.301Z,7.60
2022-10-20T22:53:53.796Z,8.00
2022-10-20T22:56:22.560Z,7.65
2022-10-20T22:58:52.946Z,7.55
2022-10-20T23:01:22.546Z,7.50
2022-10-20T23:03:50.594Z,7.47
2022-10-20T23:06:22.000Z,8.32
2022-10-20T23:08:52.007Z,7.75
2022-10-20T23:11:20.298Z,7.80
2022-10-20T23:13:48.329Z,7.22
2022-10-20T23:16:15.828Z,9.63
2022-10-20T23:18:43.594Z,8.10
2022-10-20T23:21:13.104Z,7.38
2022-10-20T23:23:40.756Z,7.05
2022-10-20T23:26:08.410Z,6.47
2022-10-20T23:28:37.096Z,6.07
2022-10-20T23:31:15.960Z,9.50
2022-10-20T23:33:44.914Z,6.88
2022-10-20T23:36:13.525Z,6.50
2022-10-20T23:38:41.672Z,6.45
2022-10-20T23:41:09.307Z,6.28
2022-10-20T23:46:09.401Z,6.88
2022-10-20T23:48:37.042Z,7.03
2022-10-20T23:51:05.882Z,6.03
2022-10-20T23:53:33.618Z,5.85
2022-10-20T23:56:01.046Z,6.15
2022-10-20T23:58:28.489Z,7.75
